sensor_id;sensor_type;location;lat;lon;timestamp;P1;durP1;ratioP1;P2;durP2;ratioP2
9496;SDS011;4786;51.270;4.456;2023-06-10T00:00:48;8.57;;;7.00;;
9496;SDS011;4786;51.270;4.456;2023-06-10T00:03:15;7.55;;;6.88;;
9496;SDS011;4786;51.270;4.456;2023-06-10T00:05:42;7.00;;;6.40;;
9496;SDS011;4786;51.270;4.456;2023-06-10T00:08:07;7.07;;;6.43;;
9496;SDS011;4786;51.270;4.456;2023-06-10T00:10:34;7.32;;;6.60;;
9496;SDS011;4786;51.270;4.456;2023-06-10T00:13:01;7.57;;;6.88;;
9496;SDS011;4786;51.270;4.456;2023-06-10T00:15:27;7.50;;;6.78;;
9496;SDS011;4786;51.270;4.456;2023-06-10T00:17:53;7.05;;;6.45;;
9496;SDS011;4786;51.270;4.456;2023-06-10T00:20:20;8.82;;;8.00;;
9496;SDS011;4786;51.270;4.456;2023-06-10T00:22:48;8.65;;;6.40;;
9496;SDS011;4786;51.270;4.456;2023-06-10T00:25:15;7.68;;;7.00;;
9496;SDS011;4786;51.270;4.456;2023-06-10T00:27:41;11.18;;;6.72;;
9496;SDS011;4786;51.270;4.456;2023-06-10T00:30:07;8.02;;;7.32;;
9496;SDS011;4786;51.270;4.456;2023-06-10T00:32:33;7.93;;;7.13;;
9496;SDS011;4786;51.270;4.456;2023-06-10T00:35:00;9.20;;;7.20;;
9496;SDS011;4786;51.270;4.456;2023-06-10T00:37:26;11.88;;;7.90;;
9496;SDS011;4786;51.270;4.456;2023-06-10T00:39:53;8.55;;;7.68;;
9496;SDS011;4786;51.270;4.456;2023-06-10T00:42:19;8.77;;;7.35;;
9496;SDS011;4786;51.270;4.456;2023-06-10T00:44:46;7.63;;;6.82;;
9496;SDS011;4786;51.270;4.456;2023-06-10T00:47:11;7.80;;;7.00;;
9496;SDS011;4786;51.270;4.456;2023-06-10T00:49:38;7.80;;;7.05;;
9496;SDS011;4786;51.270;4.456;2023-06-10T00:52:04;8.23;;;7.53;;
9496;SDS011;4786;51.270;4.456;2023-06-10T00:54:31;7.90;;;7.20;;
9496;SDS011;4786;51.270;4.456;2023-06-10T00:57:00;7.63;;;6.93;;
9496;SDS011;4786;51.270;4.456;2023-06-10T00:59:28;8.02;;;7.22;;
9496;SDS011;4786;51.270;4.456;2023-06-10T01:01:55;7.85;;;7.20;;
9496;SDS011;4786;51.270;4.456;2023-06-10T01:04:21;8.30;;;7.57;;
9496;SDS011;4786;51.270;4.456;2023-06-10T01:09:59;9.25;;;7.45;;
9496;SDS011;4786;51.270;4.456;2023-06-10T01:12:49;8.15;;;7.45;;
9496;SDS011;4786;51.270;4.456;2023-06-10T01:15:37;8.18;;;7.38;;
9496;SDS011;4786;51.270;4.456;2023-06-10T01:18:04;7.80;;;7.15;;
9496;SDS011;4786;51.270;4.456;2023-06-10T01:20:34;9.55;;;7.28;;
9496;SDS011;4786;51.270;4.456;2023-06-10T01:23:05;8.07;;;7.38;;
9496;SDS011;4786;51.270;4.456;2023-06-10T01:25:31;8.88;;;7.63;;
9496;SDS011;4786;51.270;4.456;2023-06-10T01:28:10;8.93;;;7.38;;
9496;SDS011;4786;51.270;4.456;2023-06-10T01:30:49;8.25;;;7.45;;
9496;SDS011;4786;51.270;4.456;2023-06-10T01:33:27;8.00;;;7.30;;
9496;SDS011;4786;51.270;4.456;2023-06-10T01:35:57;8.80;;;8.00;;
9496;SDS011;4786;51.270;4.456;2023-06-10T01:38:24;8.02;;;7.22;;
9496;SDS011;4786;51.270;4.456;2023-06-10T01:40:52;8.45;;;7.75;;
9496;SDS011;4786;51.270;4.456;2023-06-10T01:43:21;8.30;;;7.50;;
9496;SDS011;4786;51.270;4.456;2023-06-10T01:45:46;8.05;;;7.45;;
9496;SDS011;4786;51.270;4.456;2023-06-10T01:48:13;8.27;;;7.57;;
9496;SDS011;4786;51.270;4.456;2023-06-10T01:50:39;8.43;;;7.72;;
9496;SDS011;4786;51.270;4.456;2023-06-10T01:53:05;10.48;;;7.93;;
9496;SDS011;4786;51.270;4.456;2023-06-10T01:55:31;8.23;;;7.53;;
9496;SDS011;4786;51.270;4.456;2023-06-10T01:57:57;8.27;;;7.57;;
9496;SDS011;4786;51.270;4.456;2023-06-10T02:00:23;9.43;;;8.30;;
9496;SDS011;4786;51.270;4.456;2023-06-10T02:02:49;8.48;;;7.68;;
9496;SDS011;4786;51.270;4.456;2023-06-10T02:05:15;8.13;;;7.43;;
9496;SDS011;4786;51.270;4.456;2023-06-10T02:07:41;8.30;;;7.60;;
9496;SDS011;4786;51.270;4.456;2023-06-10T02:10:07;8.15;;;7.45;;
9496;SDS011;4786;51.270;4.456;2023-06-10T02:12:34;9.10;;;8.20;;
9496;SDS011;4786;51.270;4.456;2023-06-10T02:14:59;9.23;;;8.32;;
9496;SDS011;4786;51.270;4.456;2023-06-10T02:17:25;9.15;;;8.23;;
9496;SDS011;4786;51.270;4.456;2023-06-10T02:19:51;8.57;;;7.72;;
9496;SDS011;4786;51.270;4.456;2023-06-10T02:22:21;8.93;;;8.07;;
9496;SDS011;4786;51.270;4.456;2023-06-10T02:24:48;8.65;;;7.90;;
9496;SDS011;4786;51.270;4.456;2023-06-10T02:27:14;8.73;;;7.93;;
9496;SDS011;4786;51.270;4.456;2023-06-10T02:29:41;9.55;;;8.60;;
9496;SDS011;4786;51.270;4.456;2023-06-10T02:32:07;9.80;;;8.50;;
9496;SDS011;4786;51.270;4.456;2023-06-10T02:34:33;9.60;;;8.70;;
9496;SDS011;4786;51.270;4.456;2023-06-10T02:36:59;9.10;;;8.20;;
9496;SDS011;4786;51.270;4.456;2023-06-10T02:39:26;9.45;;;8.55;;
9496;SDS011;4786;51.270;4.456;2023-06-10T02:41:53;11.15;;;8.60;;
9496;SDS011;4786;51.270;4.456;2023-06-10T02:44:27;8.95;;;8.25;;
9496;SDS011;4786;51.270;4.456;2023-06-10T02:46:52;9.80;;;8.90;;
9496;SDS011;4786;51.270;4.456;2023-06-10T02:49:18;9.95;;;9.10;;
9496;SDS011;4786;51.270;4.456;2023-06-10T02:51:45;9.98;;;8.90;;
9496;SDS011;4786;51.270;4.456;2023-06-10T02:54:10;9.43;;;8.63;;
9496;SDS011;4786;51.270;4.456;2023-06-10T02:56:36;9.88;;;9.05;;
9496;SDS011;4786;51.270;4.456;2023-06-10T02:59:02;10.27;;;9.18;;
9496;SDS011;4786;51.270;4.456;2023-06-10T03:01:28;10.57;;;9.57;;
9496;SDS011;4786;51.270;4.456;2023-06-10T03:03:56;9.88;;;8.90;;
9496;SDS011;4786;51.270;4.456;2023-06-10T03:06:22;10.20;;;9.40;;
9496;SDS011;4786;51.270;4.456;2023-06-10T03:08:49;10.02;;;9.23;;
9496;SDS011;4786;51.270;4.456;2023-06-10T03:11:15;9.98;;;8.98;;
9496;SDS011;4786;51.270;4.456;2023-06-10T03:13:40;11.52;;;10.35;;
9496;SDS011;4786;51.270;4.456;2023-06-10T03:16:06;10.15;;;9.02;;
9496;SDS011;4786;51.270;4.456;2023-06-10T03:18:32;10.32;;;9.32;;
9496;SDS011;4786;51.270;4.456;2023-06-10T03:20:58;9.73;;;8.88;;
9496;SDS011;4786;51.270;4.456;2023-06-10T03:23:25;10.05;;;9.13;;
9496;SDS011;4786;51.270;4.456;2023-06-10T03:25:52;9.85;;;8.95;;
9496;SDS011;4786;51.270;4.456;2023-06-10T03:28:19;12.60;;;9.20;;
9496;SDS011;4786;51.270;4.456;2023-06-10T03:30:46;9.75;;;8.95;;
9496;SDS011;4786;51.270;4.456;2023-06-10T03:33:13;10.23;;;9.32;;
9496;SDS011;4786;51.270;4.456;2023-06-10T03:35:39;9.63;;;8.82;;
9496;SDS011;4786;51.270;4.456;2023-06-10T03:38:04;10.13;;;9.13;;
9496;SDS011;4786;51.270;4.456;2023-06-10T03:40:31;10.43;;;9.48;;
9496;SDS011;4786;51.270;4.456;2023-06-10T03:42:57;10.10;;;9.30;;
9496;SDS011;4786;51.270;4.456;2023-06-10T03:45:23;9.55;;;8.65;;
9496;SDS011;4786;51.270;4.456;2023-06-10T03:47:49;10.60;;;9.43;;
9496;SDS011;4786;51.270;4.456;2023-06-10T03:50:15;10.00;;;8.90;;
9496;SDS011;4786;51.270;4.456;2023-06-10T03:52:42;10.27;;;9.35;;
9496;SDS011;4786;51.270;4.456;2023-06-10T03:55:09;11.73;;;10.05;;
9496;SDS011;4786;51.270;4.456;2023-06-10T03:57:36;10.90;;;9.80;;
9496;SDS011;4786;51.270;4.456;2023-06-10T04:00:02;10.20;;;9.20;;
9496;SDS011;4786;51.270;4.456;2023-06-10T04:02:33;9.93;;;9.13;;
9496;SDS011;4786;51.270;4.456;2023-06-10T04:04:59;10.43;;;9.40;;
9496;SDS011;4786;51.270;4.456;2023-06-10T04:07:25;12.27;;;10.15;;
9496;SDS011;4786;51.270;4.456;2023-06-10T04:09:51;10.77;;;9.90;;
9496;SDS011;4786;51.270;4.456;2023-06-10T04:12:18;13.70;;;9.30;;
9496;SDS011;4786;51.270;4.456;2023-06-10T04:14:43;9.00;;;8.30;;
9496;SDS011;4786;51.270;4.456;2023-06-10T04:17:09;11.25;;;10.07;;
9496;SDS011;4786;51.270;4.456;2023-06-10T04:19:35;10.32;;;9.30;;
9496;SDS011;4786;51.270;4.456;2023-06-10T04:22:01;9.48;;;8.68;;
9496;SDS011;4786;51.270;4.456;2023-06-10T04:24:28;10.48;;;9.45;;
9496;SDS011;4786;51.270;4.456;2023-06-10T04:26:54;10.30;;;9.30;;
9496;SDS011;4786;51.270;4.456;2023-06-10T04:29:20;10.32;;;9.43;;
9496;SDS011;4786;51.270;4.456;2023-06-10T04:31:46;15.77;;;9.85;;
9496;SDS011;4786;51.270;4.456;2023-06-10T04:34:12;10.85;;;9.77;;
9496;SDS011;4786;51.270;4.456;2023-06-10T04:36:38;11.48;;;10.45;;
9496;SDS011;4786;51.270;4.456;2023-06-10T04:39:04;10.13;;;9.10;;
9496;SDS011;4786;51.270;4.456;2023-06-10T04:41:33;9.65;;;8.80;;
9496;SDS011;4786;51.270;4.456;2023-06-10T04:43:59;11.35;;;10.32;;
9496;SDS011;4786;51.270;4.456;2023-06-10T04:46:24;10.32;;;8.60;;
9496;SDS011;4786;51.270;4.456;2023-06-10T04:48:50;9.60;;;8.88;;
9496;SDS011;4786;51.270;4.456;2023-06-10T04:51:17;14.48;;;10.93;;
9496;SDS011;4786;51.270;4.456;2023-06-10T04:53:42;10.25;;;9.40;;
9496;SDS011;4786;51.270;4.456;2023-06-10T04:56:09;10.98;;;9.93;;
9496;SDS011;4786;51.270;4.456;2023-06-10T04:58:35;10.48;;;9.48;;
9496;SDS011;4786;51.270;4.456;2023-06-10T05:01:01;11.55;;;10.48;;
9496;SDS011;4786;51.270;4.456;2023-06-10T05:03:27;11.68;;;10.57;;
9496;SDS011;4786;51.270;4.456;2023-06-10T05:05:53;10.13;;;9.27;;
9496;SDS011;4786;51.270;4.456;2023-06-10T05:08:19;10.27;;;9.15;;
9496;SDS011;4786;51.270;4.456;2023-06-10T05:10:46;10.10;;;9.20;;
9496;SDS011;4786;51.270;4.456;2023-06-10T05:13:12;10.55;;;9.55;;
9496;SDS011;4786;51.270;4.456;2023-06-10T05:15:38;10.23;;;9.20;;
9496;SDS011;4786;51.270;4.456;2023-06-10T05:18:05;14.55;;;9.57;;
9496;SDS011;4786;51.270;4.456;2023-06-10T05:20:31;10.68;;;9.77;;
9496;SDS011;4786;51.270;4.456;2023-06-10T05:22:56;10.52;;;9.63;;
9496;SDS011;4786;51.270;4.456;2023-06-10T05:25:22;12.43;;;10.15;;
9496;SDS011;4786;51.270;4.456;2023-06-10T05:27:48;9.40;;;7.88;;
9496;SDS011;4786;51.270;4.456;2023-06-10T05:30:14;11.88;;;9.02;;
9496;SDS011;4786;51.270;4.456;2023-06-10T05:32:41;11.25;;;8.93;;
9496;SDS011;4786;51.270;4.456;2023-06-10T05:35:06;9.35;;;8.02;;
9496;SDS011;4786;51.270;4.456;2023-06-10T05:37:33;8.30;;;7.53;;
9496;SDS011;4786;51.270;4.456;2023-06-10T05:40:01;10.05;;;8.00;;
9496;SDS011;4786;51.270;4.456;2023-06-10T05:42:29;9.20;;;8.38;;
9496;SDS011;4786;51.270;4.456;2023-06-10T05:44:55;9.15;;;8.10;;
9496;SDS011;4786;51.270;4.456;2023-06-10T05:47:22;8.73;;;7.93;;
9496;SDS011;4786;51.270;4.456;2023-06-10T05:49:47;7.78;;;7.13;;
9496;SDS011;4786;51.270;4.456;2023-06-10T05:52:15;8.20;;;7.43;;
9496;SDS011;4786;51.270;4.456;2023-06-10T05:54:41;8.25;;;7.32;;
9496;SDS011;4786;51.270;4.456;2023-06-10T05:57:07;9.98;;;7.35;;
9496;SDS011;4786;51.270;4.456;2023-06-10T05:59:33;8.27;;;7.50;;
9496;SDS011;4786;51.270;4.456;2023-06-10T06:01:59;8.10;;;7.45;;
9496;SDS011;4786;51.270;4.456;2023-06-10T06:04:25;7.35;;;6.65;;
9496;SDS011;4786;51.270;4.456;2023-06-10T06:06:51;9.00;;;7.88;;
9496;SDS011;4786;51.270;4.456;2023-06-10T06:09:17;6.88;;;6.28;;
9496;SDS011;4786;51.270;4.456;2023-06-10T06:11:43;8.13;;;7.32;;
9496;SDS011;4786;51.270;4.456;2023-06-10T06:14:09;9.10;;;7.78;;
9496;SDS011;4786;51.270;4.456;2023-06-10T06:16:35;10.07;;;7.00;;
9496;SDS011;4786;51.270;4.456;2023-06-10T06:19:01;7.35;;;6.72;;
9496;SDS011;4786;51.270;4.456;2023-06-10T06:21:27;7.57;;;6.90;;
9496;SDS011;4786;51.270;4.456;2023-06-10T06:23:53;6.80;;;6.20;;
9496;SDS011;4786;51.270;4.456;2023-06-10T06:26:19;7.22;;;6.53;;
9496;SDS011;4786;51.270;4.456;2023-06-10T06:28:45;7.45;;;6.75;;
9496;SDS011;4786;51.270;4.456;2023-06-10T06:31:11;7.15;;;6.55;;
9496;SDS011;4786;51.270;4.456;2023-06-10T06:33:37;6.75;;;6.10;;
9496;SDS011;4786;51.270;4.456;2023-06-10T06:36:03;7.60;;;6.43;;
9496;SDS011;4786;51.270;4.456;2023-06-10T06:38:30;7.43;;;6.72;;
9496;SDS011;4786;51.270;4.456;2023-06-10T06:40:56;6.90;;;6.10;;
9496;SDS011;4786;51.270;4.456;2023-06-10T06:43:21;7.22;;;6.53;;
9496;SDS011;4786;51.270;4.456;2023-06-10T06:45:48;7.72;;;6.50;;
9496;SDS011;4786;51.270;4.456;2023-06-10T06:48:14;7.70;;;6.18;;
9496;SDS011;4786;51.270;4.456;2023-06-10T06:50:39;7.38;;;6.68;;
9496;SDS011;4786;51.270;4.456;2023-06-10T06:53:06;9.70;;;6.40;;
9496;SDS011;4786;51.270;4.456;2023-06-10T06:55:33;7.45;;;6.20;;
9496;SDS011;4786;51.270;4.456;2023-06-10T06:57:59;7.55;;;6.60;;
9496;SDS011;4786;51.270;4.456;2023-06-10T07:00:27;9.40;;;6.60;;
9496;SDS011;4786;51.270;4.456;2023-06-10T07:02:53;7.03;;;6.30;;
9496;SDS011;4786;51.270;4.456;2023-06-10T07:05:19;8.98;;;6.63;;
9496;SDS011;4786;51.270;4.456;2023-06-10T07:07:45;6.80;;;6.10;;
9496;SDS011;4786;51.270;4.456;2023-06-10T07:10:11;8.32;;;6.43;;
9496;SDS011;4786;51.270;4.456;2023-06-10T07:12:37;7.45;;;5.78;;
9496;SDS011;4786;51.270;4.456;2023-06-10T07:15:04;11.95;;;6.35;;
9496;SDS011;4786;51.270;4.456;2023-06-10T07:17:30;9.75;;;6.10;;
9496;SDS011;4786;51.270;4.456;2023-06-10T07:19:56;8.73;;;6.10;;
9496;SDS011;4786;51.270;4.456;2023-06-10T07:22:24;9.50;;;6.55;;
9496;SDS011;4786;51.270;4.456;2023-06-10T07:24:50;6.80;;;6.20;;
9496;SDS011;4786;51.270;4.456;2023-06-10T07:27:16;7.18;;;6.47;;
9496;SDS011;4786;51.270;4.456;2023-06-10T07:29:43;8.23;;;6.43;;
9496;SDS011;4786;51.270;4.456;2023-06-10T07:32:09;8.00;;;6.85;;
9496;SDS011;4786;51.270;4.456;2023-06-10T07:34:34;7.30;;;5.93;;
9496;SDS011;4786;51.270;4.456;2023-06-10T07:37:00;7.50;;;6.32;;
9496;SDS011;4786;51.270;4.456;2023-06-10T07:39:27;7.07;;;6.30;;
9496;SDS011;4786;51.270;4.456;2023-06-10T07:41:53;7.28;;;6.40;;
9496;SDS011;4786;51.270;4.456;2023-06-10T07:44:20;6.82;;;6.22;;
9496;SDS011;4786;51.270;4.456;2023-06-10T07:46:46;7.15;;;6.45;;
9496;SDS011;4786;51.270;4.456;2023-06-10T07:49:12;7.40;;;6.38;;
9496;SDS011;4786;51.270;4.456;2023-06-10T07:51:38;6.88;;;6.28;;
9496;SDS011;4786;51.270;4.456;2023-06-10T07:54:04;7.70;;;6.43;;
9496;SDS011;4786;51.270;4.456;2023-06-10T07:56:30;7.20;;;6.10;;
9496;SDS011;4786;51.270;4.456;2023-06-10T07:58:56;7.78;;;6.55;;
9496;SDS011;4786;51.270;4.456;2023-06-10T08:01:23;8.93;;;6.13;;
9496;SDS011;4786;51.270;4.456;2023-06-10T08:03:49;7.68;;;6.50;;
9496;SDS011;4786;51.270;4.456;2023-06-10T08:06:15;7.10;;;6.45;;
9496;SDS011;4786;51.270;4.456;2023-06-10T08:08:42;7.00;;;6.40;;
9496;SDS011;4786;51.270;4.456;2023-06-10T08:11:12;7.63;;;6.47;;
9496;SDS011;4786;51.270;4.456;2023-06-10T08:13:39;10.02;;;7.05;;
9496;SDS011;4786;51.270;4.456;2023-06-10T08:16:05;10.43;;;7.00;;
9496;SDS011;4786;51.270;4.456;2023-06-10T08:18:31;7.10;;;6.50;;
9496;SDS011;4786;51.270;4.456;2023-06-10T08:20:56;8.82;;;6.18;;
9496;SDS011;4786;51.270;4.456;2023-06-10T08:23:23;7.30;;;6.60;;
9496;SDS011;4786;51.270;4.456;2023-06-10T08:25:48;7.35;;;6.60;;
9496;SDS011;4786;51.270;4.456;2023-06-10T08:28:15;6.47;;;5.85;;
9496;SDS011;4786;51.270;4.456;2023-06-10T08:30:41;8.02;;;6.25;;
9496;SDS011;4786;51.270;4.456;2023-06-10T08:33:06;6.60;;;6.00;;
9496;SDS011;4786;51.270;4.456;2023-06-10T08:35:32;7.40;;;6.70;;
9496;SDS011;4786;51.270;4.456;2023-06-10T08:37:58;7.53;;;6.50;;
9496;SDS011;4786;51.270;4.456;2023-06-10T08:40:25;7.82;;;6.35;;
9496;SDS011;4786;51.270;4.456;2023-06-10T08:43:26;6.40;;;5.90;;
9496;SDS011;4786;51.270;4.456;2023-06-10T08:45:51;7.22;;;6.53;;
9496;SDS011;4786;51.270;4.456;2023-06-10T08:48:21;6.90;;;6.10;;
9496;SDS011;4786;51.270;4.456;2023-06-10T08:50:48;6.85;;;6.25;;
9496;SDS011;4786;51.270;4.456;2023-06-10T08:53:18;6.75;;;5.88;;
9496;SDS011;4786;51.270;4.456;2023-06-10T08:55:46;7.22;;;6.07;;
9496;SDS011;4786;51.270;4.456;2023-06-10T08:58:16;8.05;;;5.65;;
9496;SDS011;4786;51.270;4.456;2023-06-10T09:00:42;5.80;;;5.38;;
9496;SDS011;4786;51.270;4.456;2023-06-10T09:03:08;6.40;;;5.78;;
9496;SDS011;4786;51.270;4.456;2023-06-10T09:05:34;8.02;;;6.13;;
9496;SDS011;4786;51.270;4.456;2023-06-10T09:08:06;8.52;;;5.68;;
9496;SDS011;4786;51.270;4.456;2023-06-10T09:10:32;6.10;;;5.55;;
9496;SDS011;4786;51.270;4.456;2023-06-10T09:12:59;6.43;;;5.85;;
9496;SDS011;4786;51.270;4.456;2023-06-10T09:15:25;6.30;;;5.75;;
9496;SDS011;4786;51.270;4.456;2023-06-10T09:17:52;7.00;;;6.32;;
9496;SDS011;4786;51.270;4.456;2023-06-10T09:20:18;8.75;;;6.07;;
9496;SDS011;4786;51.270;4.456;2023-06-10T09:22:44;6.07;;;5.57;;
9496;SDS011;4786;51.270;4.456;2023-06-10T09:25:11;6.75;;;6.20;;
9496;SDS011;4786;51.270;4.456;2023-06-10T09:27:48;6.90;;;6.30;;
9496;SDS011;4786;51.270;4.456;2023-06-10T09:30:31;6.47;;;5.97;;
9496;SDS011;4786;51.270;4.456;2023-06-10T09:33:00;7.32;;;6.22;;
9496;SDS011;4786;51.270;4.456;2023-06-10T09:35:28;6.68;;;6.00;;
9496;SDS011;4786;51.270;4.456;2023-06-10T09:37:57;6.97;;;6.20;;
9496;SDS011;4786;51.270;4.456;2023-06-10T09:40:24;7.38;;;6.40;;
9496;SDS011;4786;51.270;4.456;2023-06-10T09:42:55;7.28;;;6.28;;
9496;SDS011;4786;51.270;4.456;2023-06-10T09:45:31;6.63;;;5.95;;
9496;SDS011;4786;51.270;4.456;2023-06-10T09:47:58;6.75;;;5.70;;
9496;SDS011;4786;51.270;4.456;2023-06-10T09:50:23;6.45;;;5.88;;
9496;SDS011;4786;51.270;4.456;2023-06-10T09:52:50;8.32;;;5.55;;
9496;SDS011;4786;51.270;4.456;2023-06-10T09:55:17;6.38;;;5.78;;
9496;SDS011;4786;51.270;4.456;2023-06-10T09:57:43;8.13;;;5.93;;
9496;SDS011;4786;51.270;4.456;2023-06-10T10:00:13;7.95;;;6.05;;
9496;SDS011;4786;51.270;4.456;2023-06-10T10:02:47;6.75;;;6.00;;
9496;SDS011;4786;51.270;4.456;2023-06-10T10:05:15;9.13;;;6.50;;
9496;SDS011;4786;51.270;4.456;2023-06-10T10:07:43;6.45;;;5.85;;
9496;SDS011;4786;51.270;4.456;2023-06-10T10:10:09;6.75;;;5.60;;
9496;SDS011;4786;51.270;4.456;2023-06-10T10:12:37;7.65;;;5.97;;
9496;SDS011;4786;51.270;4.456;2023-06-10T10:15:07;6.45;;;5.88;;
9496;SDS011;4786;51.270;4.456;2023-06-10T10:17:37;7.07;;;6.18;;
9496;SDS011;4786;51.270;4.456;2023-06-10T10:20:08;6.00;;;5.57;;
9496;SDS011;4786;51.270;4.456;2023-06-10T10:22:38;7.68;;;5.82;;
9496;SDS011;4786;51.270;4.456;2023-06-10T10:25:08;6.40;;;5.78;;
9496;SDS011;4786;51.270;4.456;2023-06-10T10:30:48;5.95;;;5.10;;
9496;SDS011;4786;51.270;4.456;2023-06-10T10:33:17;8.65;;;6.03;;
9496;SDS011;4786;51.270;4.456;2023-06-10T10:35:48;6.40;;;5.63;;
9496;SDS011;4786;51.270;4.456;2023-06-10T10:38:15;7.07;;;5.43;;
9496;SDS011;4786;51.270;4.456;2023-06-10T10:40:41;6.65;;;5.38;;
9496;SDS011;4786;51.270;4.456;2023-06-10T10:43:08;7.22;;;5.70;;
9496;SDS011;4786;51.270;4.456;2023-06-10T10:45:34;8.38;;;5.80;;
9496;SDS011;4786;51.270;4.456;2023-06-10T10:48:04;5.82;;;5.32;;
9496;SDS011;4786;51.270;4.456;2023-06-10T10:50:35;8.98;;;5.22;;
9496;SDS011;4786;51.270;4.456;2023-06-10T10:53:03;9.15;;;5.40;;
9496;SDS011;4786;51.270;4.456;2023-06-10T10:55:30;7.95;;;5.57;;
9496;SDS011;4786;51.270;4.456;2023-06-10T10:58:01;6.25;;;5.60;;
9496;SDS011;4786;51.270;4.456;2023-06-10T11:00:30;7.30;;;5.60;;
9496;SDS011;4786;51.270;4.456;2023-06-10T11:05:47;6.20;;;5.60;;
9496;SDS011;4786;51.270;4.456;2023-06-10T11:08:14;6.25;;;5.65;;
9496;SDS011;4786;51.270;4.456;2023-06-10T11:11:00;6.07;;;5.25;;
9496;SDS011;4786;51.270;4.456;2023-06-10T11:13:42;5.82;;;5.25;;
9496;SDS011;4786;51.270;4.456;2023-06-10T11:16:41;6.75;;;5.35;;
9496;SDS011;4786;51.270;4.456;2023-06-10T11:19:07;6.53;;;5.93;;
9496;SDS011;4786;51.270;4.456;2023-06-10T11:24:25;6.18;;;5.43;;
9496;SDS011;4786;51.270;4.456;2023-06-10T11:26:51;7.35;;;5.80;;
9496;SDS011;4786;51.270;4.456;2023-06-10T11:29:17;7.38;;;6.20;;
9496;SDS011;4786;51.270;4.456;2023-06-10T11:31:45;7.05;;;5.75;;
9496;SDS011;4786;51.270;4.456;2023-06-10T11:34:14;7.80;;;4.72;;
9496;SDS011;4786;51.270;4.456;2023-06-10T11:36:48;10.02;;;6.20;;
9496;SDS011;4786;51.270;4.456;2023-06-10T11:39:14;7.63;;;5.60;;
9496;SDS011;4786;51.270;4.456;2023-06-10T11:41:40;8.73;;;5.25;;
9496;SDS011;4786;51.270;4.456;2023-06-10T11:44:10;8.80;;;5.90;;
9496;SDS011;4786;51.270;4.456;2023-06-10T11:46:39;6.15;;;5.55;;
9496;SDS011;4786;51.270;4.456;2023-06-10T11:49:07;6.65;;;5.90;;
9496;SDS011;4786;51.270;4.456;2023-06-10T11:51:34;6.75;;;5.82;;
9496;SDS011;4786;51.270;4.456;2023-06-10T11:54:01;6.03;;;5.53;;
9496;SDS011;4786;51.270;4.456;2023-06-10T11:56:28;6.70;;;6.00;;
9496;SDS011;4786;51.270;4.456;2023-06-10T11:58:56;6.38;;;5.68;;
9496;SDS011;4786;51.270;4.456;2023-06-10T12:01:23;6.80;;;5.35;;
9496;SDS011;4786;51.270;4.456;2023-06-10T12:03:57;6.07;;;5.60;;
9496;SDS011;4786;51.270;4.456;2023-06-10T12:06:24;8.07;;;5.57;;
9496;SDS011;4786;51.270;4.456;2023-06-10T12:08:50;6.28;;;5.68;;
9496;SDS011;4786;51.270;4.456;2023-06-10T12:11:17;8.13;;;5.55;;
9496;SDS011;4786;51.270;4.456;2023-06-10T12:13:46;5.85;;;5.43;;
9496;SDS011;4786;51.270;4.456;2023-06-10T12:16:13;8.68;;;5.55;;
9496;SDS011;4786;51.270;4.456;2023-06-10T12:18:41;6.95;;;5.32;;
9496;SDS011;4786;51.270;4.456;2023-06-10T12:21:18;5.70;;;5.20;;
9496;SDS011;4786;51.270;4.456;2023-06-10T12:26:35;6.60;;;5.80;;
9496;SDS011;4786;51.270;4.456;2023-06-10T12:29:12;8.10;;;5.68;;
9496;SDS011;4786;51.270;4.456;2023-06-10T12:31:54;11.23;;;5.85;;
9496;SDS011;4786;51.270;4.456;2023-06-10T12:34:31;5.90;;;5.30;;
9496;SDS011;4786;51.270;4.456;2023-06-10T12:37:02;6.32;;;5.70;;
9496;SDS011;4786;51.270;4.456;2023-06-10T12:39:29;9.98;;;6.03;;
9496;SDS011;4786;51.270;4.456;2023-06-10T12:41:56;5.95;;;5.45;;
9496;SDS011;4786;51.270;4.456;2023-06-10T12:44:33;6.95;;;6.15;;
9496;SDS011;4786;51.270;4.456;2023-06-10T12:47:00;5.85;;;5.45;;
9496;SDS011;4786;51.270;4.456;2023-06-10T12:49:32;6.70;;;6.03;;
9496;SDS011;4786;51.270;4.456;2023-06-10T12:51:58;8.38;;;6.03;;
9496;SDS011;4786;51.270;4.456;2023-06-10T12:54:24;6.88;;;5.63;;
9496;SDS011;4786;51.270;4.456;2023-06-10T12:56:50;6.05;;;5.55;;
9496;SDS011;4786;51.270;4.456;2023-06-10T12:59:16;9.27;;;6.43;;
9496;SDS011;4786;51.270;4.456;2023-06-10T13:01:42;10.23;;;6.00;;
9496;SDS011;4786;51.270;4.456;2023-06-10T13:04:09;6.30;;;5.63;;
9496;SDS011;4786;51.270;4.456;2023-06-10T13:06:35;7.22;;;5.95;;
9496;SDS011;4786;51.270;4.456;2023-06-10T13:09:03;7.05;;;6.43;;
9496;SDS011;4786;51.270;4.456;2023-06-10T13:11:31;10.15;;;6.05;;
9496;SDS011;4786;51.270;4.456;2023-06-10T13:13:57;8.00;;;6.20;;
9496;SDS011;4786;51.270;4.456;2023-06-10T13:16:23;6.22;;;5.72;;
9496;SDS011;4786;51.270;4.456;2023-06-10T13:18:49;6.60;;;5.97;;
9496;SDS011;4786;51.270;4.456;2023-06-10T13:21:15;7.50;;;6.35;;
9496;SDS011;4786;51.270;4.456;2023-06-10T13:23:43;7.22;;;5.72;;
9496;SDS011;4786;51.270;4.456;2023-06-10T13:26:11;9.38;;;6.05;;
9496;SDS011;4786;51.270;4.456;2023-06-10T13:28:37;8.05;;;6.25;;
9496;SDS011;4786;51.270;4.456;2023-06-10T13:31:03;6.82;;;5.85;;
9496;SDS011;4786;51.270;4.456;2023-06-10T13:33:29;6.05;;;5.47;;
9496;SDS011;4786;51.270;4.456;2023-06-10T13:35:55;9.55;;;5.90;;
9496;SDS011;4786;51.270;4.456;2023-06-10T13:38:21;7.22;;;5.82;;
9496;SDS011;4786;51.270;4.456;2023-06-10T13:40:46;5.75;;;5.25;;
9496;SDS011;4786;51.270;4.456;2023-06-10T13:43:13;6.25;;;5.75;;
9496;SDS011;4786;51.270;4.456;2023-06-10T13:45:39;6.55;;;6.03;;
9496;SDS011;4786;51.270;4.456;2023-06-10T13:48:05;6.20;;;5.70;;
9496;SDS011;4786;51.270;4.456;2023-06-10T13:50:31;6.38;;;5.88;;
9496;SDS011;4786;51.270;4.456;2023-06-10T13:52:57;6.63;;;6.03;;
9496;SDS011;4786;51.270;4.456;2023-06-10T13:55:23;6.90;;;5.38;;
9496;SDS011;4786;51.270;4.456;2023-06-10T13:57:49;5.72;;;5.32;;
9496;SDS011;4786;51.270;4.456;2023-06-10T14:00:16;6.05;;;5.57;;
9496;SDS011;4786;51.270;4.456;2023-06-10T14:02:42;8.80;;;5.60;;
9496;SDS011;4786;51.270;4.456;2023-06-10T14:05:07;6.35;;;5.85;;
9496;SDS011;4786;51.270;4.456;2023-06-10T14:07:34;7.00;;;5.78;;
9496;SDS011;4786;51.270;4.456;2023-06-10T14:10:00;6.40;;;5.80;;
9496;SDS011;4786;51.270;4.456;2023-06-10T14:12:26;6.15;;;5.55;;
9496;SDS011;4786;51.270;4.456;2023-06-10T14:14:52;6.90;;;5.78;;
9496;SDS011;4786;51.270;4.456;2023-06-10T14:17:18;7.30;;;5.28;;
9496;SDS011;4786;51.270;4.456;2023-06-10T14:19:44;6.18;;;5.63;;
9496;SDS011;4786;51.270;4.456;2023-06-10T14:22:11;6.03;;;5.60;;
9496;SDS011;4786;51.270;4.456;2023-06-10T14:24:37;5.95;;;5.45;;
9496;SDS011;4786;51.270;4.456;2023-06-10T14:27:03;6.10;;;5.60;;
9496;SDS011;4786;51.270;4.456;2023-06-10T14:29:29;6.65;;;5.82;;
9496;SDS011;4786;51.270;4.456;2023-06-10T14:31:56;6.30;;;5.72;;
9496;SDS011;4786;51.270;4.456;2023-06-10T14:34:22;7.10;;;5.88;;
9496;SDS011;4786;51.270;4.456;2023-06-10T14:36:53;8.32;;;6.10;;
9496;SDS011;4786;51.270;4.456;2023-06-10T14:39:19;6.85;;;5.93;;
9496;SDS011;4786;51.270;4.456;2023-06-10T14:41:45;9.95;;;5.63;;
9496;SDS011;4786;51.270;4.456;2023-06-10T14:44:11;5.72;;;5.20;;
9496;SDS011;4786;51.270;4.456;2023-06-10T14:46:37;6.30;;;5.70;;
9496;SDS011;4786;51.270;4.456;2023-06-10T14:49:03;6.32;;;5.82;;
9496;SDS011;4786;51.270;4.456;2023-06-10T14:51:29;11.43;;;5.55;;
9496;SDS011;4786;51.270;4.456;2023-06-10T14:53:54;6.15;;;5.65;;
9496;SDS011;4786;51.270;4.456;2023-06-10T14:56:20;6.10;;;5.28;;
9496;SDS011;4786;51.270;4.456;2023-06-10T14:58:46;6.03;;;5.45;;
9496;SDS011;4786;51.270;4.456;2023-06-10T15:01:12;6.13;;;5.40;;
9496;SDS011;4786;51.270;4.456;2023-06-10T15:03:37;7.53;;;5.13;;
9496;SDS011;4786;51.270;4.456;2023-06-10T15:06:03;6.00;;;5.50;;
9496;SDS011;4786;51.270;4.456;2023-06-10T15:08:29;6.53;;;5.93;;
9496;SDS011;4786;51.270;4.456;2023-06-10T15:10:55;11.77;;;5.97;;
9496;SDS011;4786;51.270;4.456;2023-06-10T15:13:22;6.30;;;5.65;;
9496;SDS011;4786;51.270;4.456;2023-06-10T15:15:48;6.40;;;5.90;;
9496;SDS011;4786;51.270;4.456;2023-06-10T15:18:14;6.28;;;5.50;;
9496;SDS011;4786;51.270;4.456;2023-06-10T15:20:41;8.15;;;5.75;;
9496;SDS011;4786;51.270;4.456;2023-06-10T15:23:07;6.43;;;5.68;;
9496;SDS011;4786;51.270;4.456;2023-06-10T15:25:33;6.82;;;5.57;;
9496;SDS011;4786;51.270;4.456;2023-06-10T15:27:59;7.70;;;5.80;;